createdAt,value
2022-12-03T00:02:20.511Z,1.62
2022-12-03T00:12:48.597Z,1.43
2022-12-03T00:23:16.131Z,1.43
2022-12-03T00:33:43.938Z,1.52
2022-12-03T00:44:12.224Z,1.45
2022-12-03T00:54:40.102Z,1.52
2022-12-03T01:05:09.229Z,1.84
2022-12-03T01:15:35.166Z,1.75
2022-12-03T01:26:02.670Z,1.77
2022-12-03T01:36:30.635Z,1.71
2022-12-03T01:47:01.287Z,1.78
2022-12-03T01:57:31.939Z,1.91
2022-12-03T02:08:00.225Z,2.01
2022-12-03T02:18:27.786Z,2.18
2022-12-03T02:28:55.154Z,2.22
2022-12-03T02:39:22.420Z,2.09
2022-12-03T02:49:50.168Z,2.13
2022-12-03T03:00:20.123Z,2.12
2022-12-03T03:10:48.675Z,2.13
2022-12-03T03:21:16.208Z,2.05
2022-12-03T03:31:45.663Z,2.14
2022-12-03T03:42:13.368Z,2.12
2022-12-03T03:52:41.708Z,2.33
2022-12-03T04:03:11.053Z,2.38
2022-12-03T04:13:38.398Z,2.23
2022-12-03T04:24:07.684Z,2.34
2022-12-03T04:34:53.088Z,2.34
2022-12-03T04:45:20.605Z,2.19
2022-12-03T04:55:47.914Z,2.26
2022-12-03T05:06:15.232Z,2.41
2022-12-03T05:16:42.660Z,2.39
2022-12-03T05:27:10.047Z,2.39
2022-12-03T05:37:37.450Z,2.42
2022-12-03T05:48:06.109Z,2.03
2022-12-03T05:58:33.431Z,1.76
2022-12-03T06:09:00.770Z,1.86
2022-12-03T06:19:28.201Z,1.77
2022-12-03T06:29:55.636Z,1.71
2022-12-03T06:40:24.544Z,1.71
2022-12-03T06:50:51.823Z,1.67
2022-12-03T07:01:19.541Z,1.63
2022-12-03T07:11:47.021Z,1.53
2022-12-03T07:22:14.599Z,1.68
2022-12-03T07:32:41.949Z,1.96
2022-12-03T07:43:09.303Z,1.95
2022-12-03T07:53:36.934Z,1.94
2022-12-03T08:04:04.209Z,1.85
2022-12-03T08:14:32.344Z,1.81
2022-12-03T08:25:01.047Z,1.65
2022-12-03T08:35:39.672Z,1.33
2022-12-03T08:46:34.616Z,1.43
2022-12-03T08:57:34.625Z,1.35
2022-12-03T09:08:26.629Z,1.34
2022-12-03T09:19:18.556Z,1.58
2022-12-03T09:30:13.682Z,1.60
2022-12-03T09:41:05.608Z,1.69
2022-12-03T09:51:59.543Z,1.64
2022-12-03T10:02:51.584Z,1.80
2022-12-03T10:13:45.606Z,1.88
2022-12-03T10:24:38.552Z,1.62
2022-12-03T10:35:32.575Z,1.49
2022-12-03T10:46:27.608Z,1.70
2022-12-03T10:57:20.492Z,1.54
2022-12-03T11:08:14.525Z,1.35
2022-12-03T11:19:19.657Z,1.48
2022-12-03T11:30:17.494Z,1.46
2022-12-03T13:48:44.038Z,1.93
2022-12-03T13:59:24.456Z,1.65
2022-12-03T14:09:50.592Z,1.64
2022-12-03T14:20:15.585Z,1.73
2022-12-03T14:30:39.549Z,1.75
2022-12-03T14:41:24.386Z,1.61
2022-12-03T14:51:49.001Z,1.48
2022-12-03T15:02:14.153Z,1.46
2022-12-03T15:12:38.339Z,1.19
2022-12-03T15:23:02.383Z,1.20
2022-12-03T15:33:26.353Z,1.33
2022-12-03T15:43:51.732Z,1.32
2022-12-03T15:54:15.774Z,1.34
2022-12-03T16:04:39.723Z,1.33
2022-12-03T16:15:04.398Z,1.31
2022-12-03T16:25:28.438Z,1.33
2022-12-03T16:35:53.226Z,1.43
2022-12-03T16:46:20.693Z,1.51
2022-12-03T16:56:44.801Z,1.55
2022-12-03T17:07:08.870Z,1.64
2022-12-03T17:17:32.810Z,1.62
2022-12-03T17:27:56.890Z,1.55
2022-12-03T17:38:21.146Z,1.59
2022-12-03T17:48:45.165Z,1.55
2022-12-03T17:59:09.304Z,1.55
2022-12-03T18:09:33.307Z,1.58
2022-12-03T18:19:57.802Z,1.54
2022-12-03T18:30:22.096Z,1.65
2022-12-03T18:40:47.462Z,1.70
2022-12-03T18:51:15.901Z,1.77
2022-12-03T19:01:39.928Z,1.76
2022-12-03T19:12:05.853Z,1.92
2022-12-03T19:22:31.527Z,1.92
2022-12-03T19:32:55.495Z,1.91
2022-12-03T19:43:19.483Z,1.90
2022-12-03T19:53:43.537Z,1.89
2022-12-03T20:04:08.679Z,1.85
2022-12-03T20:14:32.942Z,1.84
2022-12-03T20:24:56.928Z,1.86
2022-12-03T20:35:20.897Z,1.88
2022-12-03T20:45:45.284Z,1.92
2022-12-03T20:56:10.231Z,1.91
2022-12-03T21:06:36.271Z,2.07
2022-12-03T21:17:08.438Z,2.03
2022-12-03T21:27:32.908Z,2.11
2022-12-03T21:37:56.859Z,2.08
2022-12-03T21:48:21.520Z,2.24
2022-12-03T21:58:46.408Z,2.25
2022-12-03T22:09:10.407Z,2.19
2022-12-03T22:19:34.391Z,2.14
2022-12-03T22:29:58.399Z,2.21
2022-12-03T22:40:22.460Z,2.33
2022-12-03T22:50:47.806Z,2.43
2022-12-03T23:01:21.618Z,2.52
2022-12-03T23:11:45.744Z,2.44
2022-12-03T23:22:09.676Z,2.33
2022-12-03T23:32:33.836Z,2.25
2022-12-03T23:42:58.796Z,2.31
2022-12-03T23:53:23.046Z,2.51
